createdAt,value
2022-08-03T00:02:16.983Z,21.26
2022-08-03T00:04:44.231Z,21.30
2022-08-03T00:07:11.277Z,21.15
2022-08-03T00:09:39.308Z,21.01
2022-08-03T00:12:07.108Z,21.13
2022-08-03T00:14:34.409Z,21.13
2022-08-03T00:17:01.489Z,21.14
2022-08-03T00:19:29.329Z,21.01
2022-08-03T00:21:56.275Z,20.99
2022-08-03T00:24:23.244Z,21.10
2022-08-03T00:26:50.286Z,21.09
2022-08-03T00:29:17.884Z,21.05
2022-08-03T00:31:52.650Z,21.00
2022-08-03T00:34:57.110Z,20.91
2022-08-03T00:37:13.969Z,20.90
2022-08-03T00:39:41.179Z,20.96
2022-08-03T00:42:08.227Z,20.95
2022-08-03T00:44:41.650Z,20.96
2022-08-03T00:47:10.532Z,20.94
2022-08-03T00:49:39.325Z,20.90
2022-08-03T00:52:13.899Z,20.88
2022-08-03T00:54:41.326Z,20.83
2022-08-03T00:57:09.304Z,20.74
2022-08-03T00:59:38.453Z,20.77
2022-08-03T01:02:05.922Z,20.76
2022-08-03T01:04:33.056Z,20.72
2022-08-03T01:07:10.776Z,20.70
2022-08-03T01:10:15.730Z,20.71
2022-08-03T01:13:59.229Z,20.64
2022-08-03T01:16:10.129Z,20.64
2022-08-03T01:19:05.161Z,20.61
2022-08-03T01:21:34.932Z,20.55
2022-08-03T01:24:46.041Z,20.51
2022-08-03T01:27:18.128Z,20.50
2022-08-03T01:29:51.242Z,20.52
2022-08-03T01:33:00.296Z,20.51
2022-08-03T01:35:17.408Z,20.35
2022-08-03T01:38:04.048Z,20.32
2022-08-03T01:40:34.609Z,20.33
2022-08-03T01:43:04.618Z,20.33
2022-08-03T01:45:33.903Z,20.33
2022-08-03T01:48:03.037Z,20.32
2022-08-03T01:50:32.025Z,20.28
2022-08-03T01:53:00.180Z,20.27
2022-08-03T01:55:29.118Z,20.19
2022-08-03T01:58:05.920Z,20.10
2022-08-03T02:00:37.309Z,20.02
2022-08-03T02:03:09.011Z,19.80
2022-08-03T02:05:38.250Z,19.91
2022-08-03T02:08:07.986Z,19.98
2022-08-03T02:10:38.037Z,20.03
2022-08-03T02:13:09.083Z,19.98
2022-08-03T02:15:41.568Z,19.93
2022-08-03T02:18:10.937Z,20.04
2022-08-03T02:20:40.294Z,20.05
2022-08-03T02:23:07.895Z,20.06
2022-08-03T02:25:41.890Z,20.03
2022-08-03T02:28:12.527Z,20.01
2022-08-03T02:30:43.052Z,19.98
2022-08-03T02:33:20.412Z,19.90
2022-08-03T02:35:51.500Z,19.85
2022-08-03T02:38:21.704Z,19.80
2022-08-03T02:40:51.294Z,19.81
2022-08-03T02:43:21.889Z,19.83
2022-08-03T02:45:51.715Z,19.74
2022-08-03T02:48:23.407Z,19.67
2022-08-03T02:50:54.317Z,19.71
2022-08-03T02:53:24.448Z,19.74
2022-08-03T02:55:52.938Z,19.71
2022-08-03T02:58:24.447Z,19.68
2022-08-03T03:00:53.851Z,19.67
2022-08-03T03:03:23.402Z,19.64
2022-08-03T03:05:57.440Z,19.62
2022-08-03T03:08:28.602Z,19.61
2022-08-03T03:10:59.510Z,19.61
2022-08-03T03:13:29.144Z,19.62
2022-08-03T03:16:00.841Z,19.57
2022-08-03T03:18:28.760Z,19.59
2022-08-03T03:20:56.760Z,19.45
2022-08-03T03:23:25.560Z,19.37
2022-08-03T03:25:53.569Z,19.39
2022-08-03T03:28:22.040Z,19.42
2022-08-03T03:30:52.815Z,19.36
2022-08-03T03:33:20.430Z,19.29
2022-08-03T03:35:47.891Z,19.31
2022-08-03T03:38:14.987Z,19.32
2022-08-03T03:40:42.265Z,19.33
2022-08-03T03:43:11.005Z,19.33
2022-08-03T03:45:41.035Z,19.32
2022-08-03T03:48:09.011Z,19.34
2022-08-03T03:50:37.641Z,19.33
2022-08-03T03:53:05.080Z,19.35
2022-08-03T03:55:58.984Z,19.29
2022-08-03T03:58:25.356Z,19.29
2022-08-03T04:00:54.282Z,19.29
2022-08-03T04:03:21.490Z,19.33
2022-08-03T04:06:07.563Z,19.20
2022-08-03T04:08:57.520Z,19.22
2022-08-03T04:11:38.854Z,19.32
2022-08-03T04:14:11.322Z,19.35
2022-08-03T04:16:44.012Z,19.37
2022-08-03T04:19:22.714Z,19.38
2022-08-03T04:21:53.411Z,19.37
2022-08-03T04:24:29.238Z,19.26
2022-08-03T04:26:57.810Z,19.37
2022-08-03T04:29:27.939Z,19.41
2022-08-03T04:31:57.116Z,19.43
2022-08-03T04:34:24.211Z,19.46
2022-08-03T04:36:58.516Z,19.53
2022-08-03T04:39:28.046Z,19.63
2022-08-03T04:42:07.593Z,19.64
2022-08-03T04:44:42.795Z,19.66
2022-08-03T04:47:10.038Z,19.70
2022-08-03T04:49:38.703Z,19.68
2022-08-03T04:52:08.200Z,19.71
2022-08-03T04:54:50.837Z,19.83
2022-08-03T04:57:23.098Z,19.86
2022-08-03T05:00:01.483Z,19.63
2022-08-03T05:02:30.552Z,19.65
2022-08-03T05:04:57.879Z,19.59
2022-08-03T05:07:25.362Z,19.61
2022-08-03T05:10:01.745Z,19.75
2022-08-03T05:12:33.590Z,19.83
2022-08-03T05:15:01.881Z,19.93
2022-08-03T05:17:29.341Z,19.95
2022-08-03T05:19:56.920Z,19.94
2022-08-03T05:22:24.240Z,20.12
2022-08-03T05:24:51.328Z,20.26
2022-08-03T05:27:21.302Z,20.35
2022-08-03T05:29:50.445Z,20.38
2022-08-03T05:32:18.367Z,20.50
2022-08-03T05:34:45.606Z,20.53
2022-08-03T05:37:12.688Z,20.63
2022-08-03T05:39:39.867Z,20.80
2022-08-03T05:42:07.064Z,20.89
2022-08-03T05:44:33.974Z,20.98
2022-08-03T05:47:00.884Z,21.00
2022-08-03T05:49:28.016Z,21.23
2022-08-03T05:51:59.965Z,21.53
2022-08-03T05:54:56.064Z,21.71
2022-08-03T05:57:25.820Z,21.89
2022-08-03T05:59:55.707Z,22.02
2022-08-03T06:02:28.931Z,22.10
2022-08-03T06:04:56.055Z,22.15
2022-08-03T06:07:23.162Z,22.29
2022-08-03T06:10:36.104Z,22.49
2022-08-03T06:12:37.528Z,22.60
2022-08-03T06:15:05.239Z,22.83
2022-08-03T06:17:37.766Z,22.95
2022-08-03T06:20:06.468Z,23.06
2022-08-03T06:22:33.790Z,23.19
2022-08-03T06:25:04.919Z,23.28
2022-08-03T06:27:37.006Z,23.32
2022-08-03T06:30:05.804Z,23.44
2022-08-03T06:32:33.950Z,23.59
2022-08-03T06:35:01.666Z,23.76
2022-08-03T06:37:45.017Z,24.03
2022-08-03T06:40:14.238Z,24.27
2022-08-03T06:42:41.921Z,24.18
2022-08-03T06:45:10.131Z,24.29
2022-08-03T06:47:38.783Z,24.31
2022-08-03T06:50:16.386Z,24.53
2022-08-03T06:52:44.582Z,24.47
2022-08-03T06:55:11.749Z,24.45
2022-08-03T06:57:38.957Z,24.56
2022-08-03T07:00:11.869Z,24.57
2022-08-03T07:02:40.234Z,24.75
2022-08-03T07:05:09.062Z,25.06
2022-08-03T07:07:36.933Z,25.49
2022-08-03T07:10:05.889Z,25.79
2022-08-03T07:12:35.162Z,26.15
2022-08-03T07:15:04.291Z,26.22
2022-08-03T07:17:33.200Z,25.91
2022-08-03T07:20:01.707Z,26.02
2022-08-03T07:22:28.824Z,26.34
2022-08-03T07:24:55.948Z,26.43
2022-08-03T07:27:22.999Z,26.38
2022-08-03T07:29:49.976Z,26.12
2022-08-03T07:32:17.448Z,26.31
2022-08-03T07:34:44.602Z,26.52
2022-08-03T07:37:11.871Z,26.80
2022-08-03T07:39:38.968Z,26.96
2022-08-03T07:42:07.197Z,27.12
2022-08-03T07:44:34.140Z,27.28
2022-08-03T07:47:03.295Z,27.61
2022-08-03T07:49:30.862Z,27.64
2022-08-03T07:52:16.503Z,27.81
2022-08-03T07:54:44.121Z,28.09
2022-08-03T07:57:11.205Z,28.27
2022-08-03T07:59:56.706Z,27.98
2022-08-03T08:02:27.219Z,28.29
2022-08-03T08:04:54.378Z,28.50
2022-08-03T08:07:21.533Z,28.76
2022-08-03T08:09:48.596Z,28.83
2022-08-03T08:12:16.392Z,28.92
2022-08-03T08:14:45.987Z,29.15
2022-08-03T08:17:14.448Z,29.35
2022-08-03T08:19:46.710Z,29.70
2022-08-03T08:22:29.967Z,29.93
2022-08-03T08:24:59.510Z,30.37
2022-08-03T08:28:28.995Z,30.20
2022-08-03T08:30:19.621Z,30.71
2022-08-03T08:32:47.263Z,30.86
2022-08-03T08:35:14.928Z,30.96
2022-08-03T08:37:42.304Z,31.23
2022-08-03T08:40:10.968Z,30.90
2022-08-03T08:42:40.320Z,30.05
2022-08-03T08:45:12.427Z,30.12
2022-08-03T08:47:50.994Z,29.83
2022-08-03T08:50:27.471Z,29.85
2022-08-03T08:52:57.069Z,30.00
2022-08-03T08:55:24.396Z,30.38
2022-08-03T08:57:59.663Z,30.73
2022-08-03T09:00:26.824Z,30.84
2022-08-03T09:02:54.136Z,30.74
2022-08-03T09:05:35.764Z,30.68
2022-08-03T09:08:09.232Z,30.55
2022-08-03T09:10:36.440Z,30.82
2022-08-03T09:13:03.527Z,31.13
2022-08-03T09:15:33.087Z,31.64
2022-08-03T09:18:02.816Z,31.76
2022-08-03T09:20:34.534Z,31.55
2022-08-03T09:23:26.258Z,31.49
2022-08-03T09:25:59.980Z,31.66
2022-08-03T09:29:01.216Z,31.42
2022-08-03T09:31:34.315Z,31.14
2022-08-03T09:34:05.937Z,31.75
2022-08-03T09:36:42.071Z,31.98
2022-08-03T09:39:17.235Z,32.08
2022-08-03T09:41:47.799Z,32.43
2022-08-03T09:44:24.367Z,32.40
2022-08-03T09:46:57.031Z,32.15
2022-08-03T09:49:25.338Z,31.95
2022-08-03T09:52:33.020Z,31.77
2022-08-03T09:54:41.583Z,32.42
2022-08-03T09:57:09.137Z,33.05
2022-08-03T09:59:38.098Z,33.68
2022-08-03T10:02:23.097Z,33.74
2022-08-03T10:04:53.975Z,32.70
2022-08-03T10:07:22.847Z,32.94
2022-08-03T10:10:30.192Z,33.20
2022-08-03T10:12:51.266Z,33.38
2022-08-03T10:16:21.712Z,32.90
2022-08-03T10:18:06.074Z,33.05
2022-08-03T10:20:38.885Z,33.08
2022-08-03T10:23:08.357Z,33.24
2022-08-03T10:25:38.074Z,33.55
2022-08-03T10:28:06.903Z,33.85
2022-08-03T10:30:35.443Z,33.81
2022-08-03T10:33:51.591Z,33.63
2022-08-03T10:36:03.422Z,33.00
2022-08-03T10:38:37.663Z,33.58
2022-08-03T10:41:06.533Z,33.39
2022-08-03T10:44:05.674Z,33.24
2022-08-03T10:46:35.573Z,33.12
2022-08-03T10:49:04.093Z,33.30
2022-08-03T10:51:32.614Z,33.19
2022-08-03T10:54:01.697Z,33.21
2022-08-03T10:56:50.860Z,32.90
2022-08-03T10:59:46.819Z,33.00
2022-08-03T11:02:15.106Z,32.76
2022-08-03T11:04:43.097Z,33.04
2022-08-03T11:07:23.689Z,32.59
2022-08-03T11:09:56.291Z,32.37
2022-08-03T11:12:33.915Z,32.93
2022-08-03T11:15:05.803Z,33.41
2022-08-03T11:17:46.364Z,33.37
2022-08-03T11:20:46.944Z,33.60
2022-08-03T11:23:15.936Z,33.44
2022-08-03T11:26:18.449Z,33.21
2022-08-03T11:28:48.287Z,32.91
2022-08-03T11:31:48.869Z,33.00
2022-08-03T11:34:17.066Z,33.29
2022-08-03T11:37:22.487Z,33.34
2022-08-03T11:39:53.251Z,33.34
2022-08-03T11:42:23.504Z,33.64
2022-08-03T11:44:55.313Z,33.72
2022-08-03T11:47:24.385Z,34.05
2022-08-03T11:49:54.277Z,34.23
2022-08-03T11:52:27.232Z,33.65
2022-08-03T11:54:57.033Z,33.96
2022-08-03T11:59:11.044Z,33.73
2022-08-03T12:00:22.138Z,34.08
2022-08-03T12:03:04.907Z,34.17
2022-08-03T12:05:51.289Z,34.12
2022-08-03T12:08:28.766Z,33.64
2022-08-03T12:10:57.274Z,33.23
2022-08-03T12:14:44.471Z,33.54
2022-08-03T12:16:31.243Z,33.84
2022-08-03T12:19:00.774Z,33.60
2022-08-03T12:21:28.927Z,33.91
2022-08-03T12:24:05.024Z,34.21
2022-08-03T12:26:46.310Z,33.96
2022-08-03T12:29:26.602Z,34.04
2022-08-03T12:31:53.649Z,33.94
2022-08-03T12:34:20.689Z,34.17
2022-08-03T12:36:53.520Z,34.29
2022-08-03T12:39:25.182Z,34.21
2022-08-03T12:41:56.414Z,33.61
2022-08-03T12:44:35.377Z,34.24
2022-08-03T12:47:03.425Z,34.41
2022-08-03T12:49:46.046Z,34.65
2022-08-03T12:52:13.247Z,35.09
2022-08-03T12:54:40.366Z,34.88
2022-08-03T12:57:10.145Z,34.62
2022-08-03T12:59:52.904Z,34.57
2022-08-03T13:02:24.211Z,34.93
2022-08-03T13:04:54.624Z,34.66
2022-08-03T13:07:23.475Z,34.93
2022-08-03T13:09:53.583Z,34.97
2022-08-03T13:12:22.016Z,34.54
2022-08-03T13:14:55.072Z,34.12
2022-08-03T13:17:22.741Z,34.28
2022-08-03T13:19:51.560Z,34.25
2022-08-03T13:22:30.462Z,34.01
2022-08-03T13:24:57.868Z,34.31
2022-08-03T13:28:03.922Z,34.43
2022-08-03T13:30:13.928Z,34.36
2022-08-03T13:32:49.807Z,34.21
2022-08-03T13:35:16.973Z,34.54
2022-08-03T13:37:44.209Z,34.66
2022-08-03T13:40:16.764Z,34.63
2022-08-03T13:42:44.158Z,34.42
2022-08-03T13:45:11.717Z,34.59
2022-08-03T13:47:38.898Z,34.91
2022-08-03T13:50:06.695Z,34.93
2022-08-03T13:52:35.740Z,34.99
2022-08-03T13:55:05.259Z,35.09
2022-08-03T13:58:03.456Z,34.88
2022-08-03T14:00:27.640Z,34.57
2022-08-03T14:03:09.104Z,34.25
2022-08-03T14:05:38.795Z,34.11
2022-08-03T14:08:07.428Z,34.38
2022-08-03T14:10:37.583Z,34.41
2022-08-03T14:13:05.662Z,34.13
2022-08-03T14:15:37.584Z,34.43
2022-08-03T14:18:07.489Z,34.39
2022-08-03T14:20:48.973Z,34.52
2022-08-03T14:23:19.030Z,34.29
2022-08-03T14:25:50.271Z,34.05
2022-08-03T14:28:22.906Z,34.09
2022-08-03T14:30:50.833Z,34.28
2022-08-03T14:33:21.067Z,34.54
2022-08-03T14:35:49.207Z,34.50
2022-08-03T14:38:16.584Z,34.45
2022-08-03T14:40:44.231Z,34.19
2022-08-03T14:43:11.585Z,34.05
2022-08-03T14:45:39.736Z,34.23
2022-08-03T14:50:28.752Z,34.42
2022-08-03T14:50:55.639Z,34.53
2022-08-03T14:53:23.202Z,34.81
2022-08-03T14:55:51.876Z,34.65
2022-08-03T14:58:23.739Z,34.39
2022-08-03T15:00:52.766Z,34.43
2022-08-03T15:03:24.069Z,34.41
2022-08-03T15:05:56.573Z,34.11
2022-08-03T15:08:25.143Z,34.25
2022-08-03T15:10:54.101Z,34.24
2022-08-03T15:13:21.894Z,34.38
2022-08-03T15:15:49.997Z,34.27
2022-08-03T15:18:17.029Z,34.11
2022-08-03T15:20:45.958Z,34.14
2022-08-03T15:23:15.386Z,34.10
2022-08-03T15:26:28.246Z,33.93
2022-08-03T15:28:32.175Z,33.70
2022-08-03T15:30:59.256Z,33.81
2022-08-03T15:33:26.468Z,33.78
2022-08-03T15:35:53.890Z,33.78
2022-08-03T15:38:25.681Z,33.92
2022-08-03T15:40:54.905Z,34.07
2022-08-03T15:43:23.574Z,34.22
2022-08-03T15:46:19.149Z,34.17
2022-08-03T15:48:39.057Z,34.09
2022-08-03T15:51:07.175Z,33.88
2022-08-03T15:53:34.440Z,33.67
2022-08-03T15:56:06.328Z,33.50
2022-08-03T15:59:07.661Z,33.57
2022-08-03T16:01:26.650Z,33.67
2022-08-03T16:03:53.889Z,33.42
2022-08-03T16:06:29.838Z,33.46
2022-08-03T16:09:23.537Z,33.58
2022-08-03T16:11:54.215Z,33.45
2022-08-03T16:14:32.161Z,33.33
2022-08-03T16:17:03.056Z,33.25
2022-08-03T16:19:30.135Z,33.03
2022-08-03T16:21:57.309Z,33.03
2022-08-03T16:24:27.800Z,33.03
2022-08-03T16:26:56.625Z,33.07
2022-08-03T16:29:24.144Z,33.06
2022-08-03T16:31:52.426Z,33.04
2022-08-03T16:34:21.266Z,32.92
2022-08-03T16:36:48.370Z,32.62
2022-08-03T16:39:15.608Z,32.50
2022-08-03T16:41:53.665Z,32.48
2022-08-03T16:44:30.842Z,32.67
2022-08-03T16:46:59.261Z,32.49
2022-08-03T16:49:54.528Z,32.39
2022-08-03T16:52:14.048Z,32.40
2022-08-03T16:54:50.541Z,32.22
2022-08-03T16:57:55.964Z,32.29
2022-08-03T17:00:09.141Z,32.13
2022-08-03T17:02:37.171Z,32.19
2022-08-03T17:05:05.051Z,32.30
2022-08-03T17:07:32.056Z,31.98
2022-08-03T17:10:02.074Z,32.04
2022-08-03T17:12:30.233Z,31.99
2022-08-03T17:14:58.687Z,32.03
2022-08-03T17:17:47.543Z,31.94
2022-08-03T17:20:21.804Z,31.96
2022-08-03T17:23:14.536Z,31.76
2022-08-03T17:26:02.088Z,31.57
2022-08-03T17:28:49.514Z,31.45
2022-08-03T17:31:23.059Z,31.45
2022-08-03T17:34:00.262Z,31.35
2022-08-03T17:36:42.150Z,31.38
2022-08-03T17:39:17.174Z,31.34
2022-08-03T17:41:50.193Z,31.35
2022-08-03T17:44:33.212Z,31.22
2022-08-03T17:47:06.581Z,31.13
2022-08-03T17:49:40.178Z,31.08
2022-08-03T17:52:28.691Z,31.17
2022-08-03T17:55:55.894Z,30.96
2022-08-03T18:02:18.533Z,30.98
2022-08-03T18:08:04.913Z,30.86
2022-08-03T18:10:36.518Z,30.87
2022-08-03T18:13:30.554Z,30.73
2022-08-03T18:16:03.154Z,30.66
2022-08-03T18:18:40.906Z,30.51
2022-08-03T18:21:16.946Z,30.35
2022-08-03T18:23:50.333Z,30.24
2022-08-03T18:26:19.075Z,30.21
2022-08-03T18:28:51.724Z,30.13
2022-08-03T18:32:00.549Z,30.04
2022-08-03T18:34:18.286Z,30.03
2022-08-03T18:36:56.174Z,29.89
2022-08-03T18:39:23.486Z,29.80
2022-08-03T18:41:51.893Z,29.67
2022-08-03T18:44:45.559Z,29.57
2022-08-03T18:47:50.927Z,29.45
2022-08-03T18:50:48.258Z,29.34
2022-08-03T18:53:21.193Z,29.24
2022-08-03T18:56:01.291Z,29.14
2022-08-03T18:58:46.336Z,29.02
2022-08-03T19:01:59.641Z,28.91
2022-08-03T19:04:41.194Z,28.77
2022-08-03T19:07:25.085Z,28.67
2022-08-03T19:09:59.886Z,28.52
2022-08-03T19:12:51.914Z,28.49
2022-08-03T19:15:36.516Z,28.41
2022-08-03T19:18:12.416Z,28.30
2022-08-03T19:20:46.787Z,28.24
2022-08-03T19:23:15.491Z,28.19
2022-08-03T19:25:43.255Z,28.11
2022-08-03T19:28:10.745Z,28.03
2022-08-03T19:30:46.294Z,27.98
2022-08-03T19:33:20.922Z,27.88
2022-08-03T19:35:55.263Z,27.79
2022-08-03T19:38:28.465Z,27.69
2022-08-03T19:41:03.264Z,27.66
2022-08-03T19:43:52.580Z,27.58
2022-08-03T19:46:30.657Z,27.51
2022-08-03T19:49:04.211Z,27.42
2022-08-03T19:52:02.266Z,27.33
2022-08-03T19:54:29.841Z,27.28
2022-08-03T19:57:02.825Z,27.31
2022-08-03T19:59:40.498Z,27.23
2022-08-03T20:02:26.206Z,27.13
2022-08-03T20:04:57.537Z,27.13
2022-08-03T20:07:26.297Z,27.10
2022-08-03T20:09:56.537Z,27.04
2022-08-03T20:12:27.783Z,26.98
2022-08-03T20:14:58.297Z,26.94
2022-08-03T20:17:55.440Z,26.91
2022-08-03T20:20:13.818Z,26.86
2022-08-03T20:22:46.056Z,26.79
2022-08-03T20:28:15.390Z,26.62
2022-08-03T20:30:47.194Z,26.56
2022-08-03T20:33:18.589Z,26.51
2022-08-03T20:35:49.635Z,26.51
2022-08-03T20:38:19.037Z,26.37
2022-08-03T20:40:48.211Z,26.37
2022-08-03T20:43:20.055Z,26.31
2022-08-03T20:45:59.578Z,26.28
2022-08-03T20:48:37.491Z,26.16
2022-08-03T20:51:15.697Z,26.11
2022-08-03T20:53:57.366Z,26.05
2022-08-03T20:56:32.284Z,26.03
2022-08-03T20:59:07.183Z,25.97
2022-08-03T21:01:44.260Z,25.91
2022-08-03T21:04:11.840Z,25.79
2022-08-03T21:06:53.155Z,25.81
2022-08-03T21:09:33.590Z,25.70
2022-08-03T21:12:13.257Z,25.73
2022-08-03T21:12:56.081Z,30.98
2022-08-03T21:13:03.991Z,30.85
2022-08-03T21:13:13.571Z,26.70
2022-08-03T21:15:02.364Z,25.61
2022-08-03T21:17:40.470Z,25.60
2022-08-03T21:20:10.924Z,25.53
2022-08-03T21:22:39.541Z,25.51
2022-08-03T21:25:09.483Z,25.48
2022-08-03T21:27:37.515Z,25.35
2022-08-03T21:30:09.164Z,25.37
2022-08-03T21:32:40.451Z,25.11
2022-08-03T21:35:12.373Z,25.17
2022-08-03T21:37:40.844Z,25.15
2022-08-03T21:40:11.259Z,24.98
2022-08-03T21:42:40.485Z,24.99
2022-08-03T21:45:13.937Z,24.93
2022-08-03T21:47:44.213Z,24.93
2022-08-03T21:50:12.964Z,24.92
2022-08-03T21:52:46.303Z,24.87
2022-08-03T21:55:20.719Z,24.81
2022-08-03T21:57:53.618Z,24.73
2022-08-03T22:00:23.371Z,24.69
2022-08-03T22:02:59.057Z,24.69
2022-08-03T22:05:43.952Z,24.66
2022-08-03T22:08:14.345Z,24.57
2022-08-03T22:10:44.463Z,24.49
2022-08-03T22:13:20.611Z,24.53
2022-08-03T22:16:03.698Z,24.28
2022-08-03T22:18:30.780Z,24.21
2022-08-03T22:20:59.377Z,24.20
2022-08-03T22:23:27.548Z,24.18
2022-08-03T22:25:59.904Z,24.10
2022-08-03T22:28:30.500Z,24.07
2022-08-03T22:30:59.226Z,23.98
2022-08-03T22:33:48.741Z,23.82
2022-08-03T22:36:19.218Z,23.82
2022-08-03T22:38:47.698Z,23.80
2022-08-03T22:41:19.537Z,23.71
2022-08-03T22:43:46.728Z,23.72
2022-08-03T22:46:18.667Z,23.68
2022-08-03T22:48:47.503Z,23.68
2022-08-03T22:51:15.696Z,23.66
2022-08-03T22:53:46.372Z,23.62
2022-08-03T22:56:13.823Z,23.57
2022-08-03T22:58:40.851Z,23.55
2022-08-03T23:01:10.214Z,23.52
2022-08-03T23:04:00.021Z,23.37
2022-08-03T23:06:34.723Z,23.34
2022-08-03T23:09:08.133Z,23.32
2022-08-03T23:11:42.995Z,23.26
2022-08-03T23:14:16.060Z,23.23
2022-08-03T23:16:45.413Z,23.18
2022-08-03T23:19:17.177Z,23.11
2022-08-03T23:22:02.137Z,23.08
2022-08-03T23:24:36.397Z,23.05
2022-08-03T23:27:05.918Z,23.06
2022-08-03T23:29:36.497Z,23.00
2022-08-03T23:32:05.492Z,22.96
2022-08-03T23:34:52.052Z,22.93
2022-08-03T23:37:20.827Z,22.86
2022-08-03T23:39:49.063Z,22.88
2022-08-03T23:42:19.617Z,22.86
2022-08-03T23:44:47.172Z,22.89
2022-08-03T23:47:14.389Z,22.88
2022-08-03T23:49:41.493Z,22.78
2022-08-03T23:52:14.133Z,22.76
2022-08-03T23:54:59.813Z,22.74
2022-08-03T23:57:37.638Z,22.68
